sensor_id;sensor_type;location;lat;lon;timestamp;pressure;altitude;pressure_sealevel;temperature;humidity
25944;BME280;13742;49.306;8.636;2022-07-18T00:00:09;101154.75;;;22.18;34.42
25944;BME280;13742;49.306;8.636;2022-07-18T00:01:08;101155.53;;;22.19;34.20
25944;BME280;13742;49.306;8.636;2022-07-18T00:02:08;101156.94;;;22.18;34.20
25944;BME280;13742;49.306;8.636;2022-07-18T00:03:08;101151.88;;;22.17;33.91
25944;BME280;13742;49.306;8.636;2022-07-18T00:04:08;101155.41;;;22.17;34.00
25944;BME280;13742;49.306;8.636;2022-07-18T00:05:08;101149.51;;;22.16;33.76
25944;BME280;13742;49.306;8.636;2022-07-18T00:06:08;101152.27;;;22.15;33.74
25944;BME280;13742;49.306;8.636;2022-07-18T00:07:10;101151.66;;;22.15;33.86
25944;BME280;13742;49.306;8.636;2022-07-18T00:08:08;101155.98;;;22.14;34.41
25944;BME280;13742;49.306;8.636;2022-07-18T00:09:08;101154.60;;;22.11;34.47
25944;BME280;13742;49.306;8.636;2022-07-18T00:10:08;101154.55;;;22.07;34.89
25944;BME280;13742;49.306;8.636;2022-07-18T00:11:08;101153.97;;;21.98;35.45
25944;BME280;13742;49.306;8.636;2022-07-18T00:12:09;101153.98;;;21.95;35.32
25944;BME280;13742;49.306;8.636;2022-07-18T00:13:10;101150.31;;;21.93;35.38
25944;BME280;13742;49.306;8.636;2022-07-18T00:14:08;101151.08;;;21.89;35.43
25944;BME280;13742;49.306;8.636;2022-07-18T00:15:10;101148.84;;;21.84;35.78
25944;BME280;13742;49.306;8.636;2022-07-18T00:16:08;101149.92;;;21.82;35.87
25944;BME280;13742;49.306;8.636;2022-07-18T00:17:09;101149.47;;;21.81;35.67
25944;BME280;13742;49.306;8.636;2022-07-18T00:18:08;101150.66;;;21.74;36.02
25944;BME280;13742;49.306;8.636;2022-07-18T00:19:08;101154.97;;;21.74;35.63
25944;BME280;13742;49.306;8.636;2022-07-18T00:20:09;101152.98;;;21.72;36.07
25944;BME280;13742;49.306;8.636;2022-07-18T00:21:08;101159.24;;;21.67;36.17
25944;BME280;13742;49.306;8.636;2022-07-18T00:22:08;101155.59;;;21.61;36.13
25944;BME280;13742;49.306;8.636;2022-07-18T00:23:08;101157.07;;;21.55;36.35
25944;BME280;13742;49.306;8.636;2022-07-18T00:24:08;101158.70;;;21.54;36.23
25944;BME280;13742;49.306;8.636;2022-07-18T00:25:08;101158.93;;;21.53;36.13
25944;BME280;13742;49.306;8.636;2022-07-18T00:26:08;101159.59;;;21.48;36.07
25944;BME280;13742;49.306;8.636;2022-07-18T00:27:08;101161.09;;;21.42;36.45
25944;BME280;13742;49.306;8.636;2022-07-18T00:28:11;101165.30;;;21.41;36.56
25944;BME280;13742;49.306;8.636;2022-07-18T00:29:08;101168.09;;;21.41;36.27
25944;BME280;13742;49.306;8.636;2022-07-18T00:30:09;101169.68;;;21.39;36.43
25944;BME280;13742;49.306;8.636;2022-07-18T00:31:08;101167.42;;;21.34;36.64
25944;BME280;13742;49.306;8.636;2022-07-18T00:32:08;101167.73;;;21.23;36.84
25944;BME280;13742;49.306;8.636;2022-07-18T00:33:08;101164.78;;;21.19;36.91
25944;BME280;13742;49.306;8.636;2022-07-18T00:34:08;101166.28;;;21.22;36.58
25944;BME280;13742;49.306;8.636;2022-07-18T00:35:08;101171.06;;;21.19;37.15
25944;BME280;13742;49.306;8.636;2022-07-18T00:36:08;101171.00;;;21.19;37.00
25944;BME280;13742;49.306;8.636;2022-07-18T00:37:08;101171.66;;;21.14;37.03
25944;BME280;13742;49.306;8.636;2022-07-18T00:38:08;101170.66;;;21.12;37.05
25944;BME280;13742;49.306;8.636;2022-07-18T00:39:08;101166.39;;;21.12;37.02
25944;BME280;13742;49.306;8.636;2022-07-18T00:40:09;101169.80;;;21.13;36.89
25944;BME280;13742;49.306;8.636;2022-07-18T00:41:08;101172.39;;;21.11;36.61
25944;BME280;13742;49.306;8.636;2022-07-18T00:42:08;101169.64;;;21.03;37.10
25944;BME280;13742;49.306;8.636;2022-07-18T00:43:11;101172.82;;;21.07;36.91
25944;BME280;13742;49.306;8.636;2022-07-18T00:44:15;101170.11;;;21.07;36.95
25944;BME280;13742;49.306;8.636;2022-07-18T00:45:09;101169.78;;;21.08;36.45
25944;BME280;13742;49.306;8.636;2022-07-18T00:46:08;101169.54;;;21.09;36.93
25944;BME280;13742;49.306;8.636;2022-07-18T00:47:08;101167.58;;;21.11;37.07
25944;BME280;13742;49.306;8.636;2022-07-18T00:48:08;101168.41;;;21.10;37.00
25944;BME280;13742;49.306;8.636;2022-07-18T00:49:08;101167.66;;;21.08;37.30
25944;BME280;13742;49.306;8.636;2022-07-18T00:50:09;101170.11;;;21.07;37.46
25944;BME280;13742;49.306;8.636;2022-07-18T00:51:08;101171.80;;;21.08;37.38
25944;BME280;13742;49.306;8.636;2022-07-18T00:52:08;101168.13;;;21.05;37.21
25944;BME280;13742;49.306;8.636;2022-07-18T00:53:10;101169.30;;;21.03;37.46
25944;BME280;13742;49.306;8.636;2022-07-18T00:54:08;101171.55;;;21.02;37.24
25944;BME280;13742;49.306;8.636;2022-07-18T00:55:08;101171.57;;;21.00;37.38
25944;BME280;13742;49.306;8.636;2022-07-18T00:56:08;101170.16;;;21.00;37.26
25944;BME280;13742;49.306;8.636;2022-07-18T00:57:08;101172.09;;;20.96;37.72
25944;BME280;13742;49.306;8.636;2022-07-18T00:58:09;101171.42;;;20.97;37.53
25944;BME280;13742;49.306;8.636;2022-07-18T00:59:09;101174.19;;;20.93;37.53
25944;BME280;13742;49.306;8.636;2022-07-18T01:00:14;101171.39;;;20.89;37.37
25944;BME280;13742;49.306;8.636;2022-07-18T01:01:13;101172.31;;;20.88;38.04
25944;BME280;13742;49.306;8.636;2022-07-18T01:02:08;101172.03;;;20.85;38.05
25944;BME280;13742;49.306;8.636;2022-07-18T01:03:08;101175.56;;;20.80;38.28
25944;BME280;13742;49.306;8.636;2022-07-18T01:05:08;101176.31;;;20.80;37.90
25944;BME280;13742;49.306;8.636;2022-07-18T01:06:09;101174.85;;;20.81;37.92
25944;BME280;13742;49.306;8.636;2022-07-18T01:07:09;101172.36;;;20.79;38.20
25944;BME280;13742;49.306;8.636;2022-07-18T01:08:08;101173.44;;;20.77;38.46
25944;BME280;13742;49.306;8.636;2022-07-18T01:09:08;101173.06;;;20.74;38.78
25944;BME280;13742;49.306;8.636;2022-07-18T01:10:08;101172.34;;;20.72;38.86
25944;BME280;13742;49.306;8.636;2022-07-18T01:11:09;101172.52;;;20.70;39.04
25944;BME280;13742;49.306;8.636;2022-07-18T01:12:08;101169.75;;;20.62;39.32
25944;BME280;13742;49.306;8.636;2022-07-18T01:13:09;101169.42;;;20.47;39.88
25944;BME280;13742;49.306;8.636;2022-07-18T01:14:08;101173.77;;;20.08;40.55
25944;BME280;13742;49.306;8.636;2022-07-18T01:15:08;101176.70;;;20.24;40.24
25944;BME280;13742;49.306;8.636;2022-07-18T01:16:08;101173.69;;;20.21;40.21
25944;BME280;13742;49.306;8.636;2022-07-18T01:17:11;101173.66;;;20.19;40.46
25944;BME280;13742;49.306;8.636;2022-07-18T01:18:08;101174.45;;;20.10;40.70
25944;BME280;13742;49.306;8.636;2022-07-18T01:19:09;101174.61;;;19.93;40.85
25944;BME280;13742;49.306;8.636;2022-07-18T01:20:09;101173.44;;;19.93;40.92
25944;BME280;13742;49.306;8.636;2022-07-18T01:21:08;101173.94;;;19.88;41.02
25944;BME280;13742;49.306;8.636;2022-07-18T01:22:09;101176.08;;;19.79;41.21
25944;BME280;13742;49.306;8.636;2022-07-18T01:23:08;101177.98;;;19.74;41.39
25944;BME280;13742;49.306;8.636;2022-07-18T01:24:08;101176.58;;;19.66;41.49
25944;BME280;13742;49.306;8.636;2022-07-18T01:25:09;101177.52;;;19.73;41.33
25944;BME280;13742;49.306;8.636;2022-07-18T01:26:09;101172.67;;;19.70;41.74
25944;BME280;13742;49.306;8.636;2022-07-18T01:27:17;101176.86;;;19.77;41.14
25944;BME280;13742;49.306;8.636;2022-07-18T01:28:09;101173.44;;;19.80;41.00
25944;BME280;13742;49.306;8.636;2022-07-18T01:29:08;101177.63;;;19.80;41.41
25944;BME280;13742;49.306;8.636;2022-07-18T01:30:09;101179.09;;;19.81;41.54
25944;BME280;13742;49.306;8.636;2022-07-18T01:31:09;101177.13;;;19.80;41.32
25944;BME280;13742;49.306;8.636;2022-07-18T01:32:09;101179.71;;;19.80;40.81
25944;BME280;13742;49.306;8.636;2022-07-18T01:33:08;101176.34;;;19.81;40.53
25944;BME280;13742;49.306;8.636;2022-07-18T01:34:08;101177.91;;;19.79;41.68
25944;BME280;13742;49.306;8.636;2022-07-18T01:35:08;101172.17;;;19.80;41.41
25944;BME280;13742;49.306;8.636;2022-07-18T01:36:08;101175.63;;;19.79;41.70
25944;BME280;13742;49.306;8.636;2022-07-18T01:37:08;101174.80;;;19.76;41.89
25944;BME280;13742;49.306;8.636;2022-07-18T01:38:08;101177.36;;;19.78;41.45
25944;BME280;13742;49.306;8.636;2022-07-18T01:39:09;101176.30;;;19.79;41.49
25944;BME280;13742;49.306;8.636;2022-07-18T01:40:09;101175.95;;;19.77;41.89
25944;BME280;13742;49.306;8.636;2022-07-18T01:41:08;101175.29;;;19.71;42.21
25944;BME280;13742;49.306;8.636;2022-07-18T01:42:09;101178.92;;;19.76;41.76
25944;BME280;13742;49.306;8.636;2022-07-18T01:43:08;101176.56;;;19.74;42.07
25944;BME280;13742;49.306;8.636;2022-07-18T01:44:08;101174.84;;;19.74;42.05
25944;BME280;13742;49.306;8.636;2022-07-18T01:45:08;101175.95;;;19.74;41.72
25944;BME280;13742;49.306;8.636;2022-07-18T01:46:09;101174.50;;;19.75;41.59
25944;BME280;13742;49.306;8.636;2022-07-18T01:47:09;101175.73;;;19.73;42.15
25944;BME280;13742;49.306;8.636;2022-07-18T01:48:08;101179.53;;;19.70;42.35
25944;BME280;13742;49.306;8.636;2022-07-18T01:49:08;101179.55;;;19.73;41.66
25944;BME280;13742;49.306;8.636;2022-07-18T01:50:09;101176.34;;;19.72;42.12
25944;BME280;13742;49.306;8.636;2022-07-18T01:51:11;101175.23;;;19.71;42.06
25944;BME280;13742;49.306;8.636;2022-07-18T01:52:08;101180.88;;;19.63;42.14
25944;BME280;13742;49.306;8.636;2022-07-18T01:53:08;101180.71;;;19.61;42.22
25944;BME280;13742;49.306;8.636;2022-07-18T01:54:08;101178.37;;;19.60;42.32
25944;BME280;13742;49.306;8.636;2022-07-18T01:55:09;101177.74;;;19.61;42.29
25944;BME280;13742;49.306;8.636;2022-07-18T01:56:11;101178.80;;;19.62;41.80
25944;BME280;13742;49.306;8.636;2022-07-18T01:57:08;101179.86;;;19.63;41.74
25944;BME280;13742;49.306;8.636;2022-07-18T01:58:08;101178.54;;;19.60;42.17
25944;BME280;13742;49.306;8.636;2022-07-18T01:59:08;101179.75;;;19.59;42.31
25944;BME280;13742;49.306;8.636;2022-07-18T02:00:09;101178.42;;;19.58;42.46
25944;BME280;13742;49.306;8.636;2022-07-18T02:01:08;101174.41;;;19.56;42.36
25944;BME280;13742;49.306;8.636;2022-07-18T02:02:08;101177.42;;;19.55;42.28
25944;BME280;13742;49.306;8.636;2022-07-18T02:03:08;101179.05;;;19.54;42.56
25944;BME280;13742;49.306;8.636;2022-07-18T02:04:08;101177.80;;;19.49;42.66
25944;BME280;13742;49.306;8.636;2022-07-18T02:05:09;101176.91;;;19.46;42.39
25944;BME280;13742;49.306;8.636;2022-07-18T02:06:08;101177.68;;;19.47;42.05
25944;BME280;13742;49.306;8.636;2022-07-18T02:07:08;101176.41;;;19.44;42.67
25944;BME280;13742;49.306;8.636;2022-07-18T02:08:08;101177.34;;;19.43;42.49
25944;BME280;13742;49.306;8.636;2022-07-18T02:09:10;101178.47;;;19.44;42.22
25944;BME280;13742;49.306;8.636;2022-07-18T02:10:09;101174.84;;;19.39;42.82
25944;BME280;13742;49.306;8.636;2022-07-18T02:11:08;101175.17;;;19.40;42.58
25944;BME280;13742;49.306;8.636;2022-07-18T02:12:08;101175.89;;;19.40;42.02
25944;BME280;13742;49.306;8.636;2022-07-18T02:13:08;101173.48;;;19.39;42.53
25944;BME280;13742;49.306;8.636;2022-07-18T02:14:08;101176.05;;;19.40;42.41
25944;BME280;13742;49.306;8.636;2022-07-18T02:15:09;101174.61;;;19.40;42.10
25944;BME280;13742;49.306;8.636;2022-07-18T02:16:08;101172.89;;;19.37;42.95
25944;BME280;13742;49.306;8.636;2022-07-18T02:17:08;101175.10;;;19.38;42.11
25944;BME280;13742;49.306;8.636;2022-07-18T02:18:08;101176.06;;;19.38;42.88
25944;BME280;13742;49.306;8.636;2022-07-18T02:19:09;101172.09;;;19.37;42.71
25944;BME280;13742;49.306;8.636;2022-07-18T02:20:09;101172.05;;;19.38;42.38
25944;BME280;13742;49.306;8.636;2022-07-18T02:21:08;101173.16;;;19.37;42.93
25944;BME280;13742;49.306;8.636;2022-07-18T02:22:08;101172.27;;;19.37;42.92
25944;BME280;13742;49.306;8.636;2022-07-18T02:23:08;101170.15;;;19.36;42.55
25944;BME280;13742;49.306;8.636;2022-07-18T02:24:08;101169.75;;;19.36;42.56
25944;BME280;13742;49.306;8.636;2022-07-18T02:25:08;101171.71;;;19.37;42.92
25944;BME280;13742;49.306;8.636;2022-07-18T02:26:09;101171.76;;;19.37;42.79
25944;BME280;13742;49.306;8.636;2022-07-18T02:27:08;101168.96;;;19.36;42.51
25944;BME280;13742;49.306;8.636;2022-07-18T02:28:08;101168.64;;;19.37;42.92
25944;BME280;13742;49.306;8.636;2022-07-18T02:29:08;101169.25;;;19.39;42.73
25944;BME280;13742;49.306;8.636;2022-07-18T02:30:09;101173.22;;;19.40;42.61
25944;BME280;13742;49.306;8.636;2022-07-18T02:31:08;101171.36;;;19.40;42.56
25944;BME280;13742;49.306;8.636;2022-07-18T02:32:08;101174.89;;;19.41;42.28
25944;BME280;13742;49.306;8.636;2022-07-18T02:33:08;101174.28;;;19.41;42.34
25944;BME280;13742;49.306;8.636;2022-07-18T02:34:10;101175.11;;;19.43;41.96
25944;BME280;13742;49.306;8.636;2022-07-18T02:35:09;101176.63;;;19.45;41.83
25944;BME280;13742;49.306;8.636;2022-07-18T02:36:08;101173.94;;;19.45;41.93
25944;BME280;13742;49.306;8.636;2022-07-18T02:37:08;101170.94;;;19.45;41.89
25944;BME280;13742;49.306;8.636;2022-07-18T02:38:08;101171.94;;;19.47;41.95
25944;BME280;13742;49.306;8.636;2022-07-18T02:39:09;101172.62;;;19.48;41.76
25944;BME280;13742;49.306;8.636;2022-07-18T02:40:09;101170.94;;;19.48;41.44
25944;BME280;13742;49.306;8.636;2022-07-18T02:41:08;101170.26;;;19.48;41.52
25944;BME280;13742;49.306;8.636;2022-07-18T02:42:09;101172.45;;;19.48;41.27
25944;BME280;13742;49.306;8.636;2022-07-18T02:43:08;101170.59;;;19.49;41.51
25944;BME280;13742;49.306;8.636;2022-07-18T02:44:08;101170.38;;;19.49;41.04
25944;BME280;13742;49.306;8.636;2022-07-18T02:45:08;101170.83;;;19.49;41.28
25944;BME280;13742;49.306;8.636;2022-07-18T02:46:08;101173.40;;;19.50;40.84
25944;BME280;13742;49.306;8.636;2022-07-18T02:47:08;101176.80;;;19.51;40.61
25944;BME280;13742;49.306;8.636;2022-07-18T02:48:09;101176.80;;;19.51;40.53
25944;BME280;13742;49.306;8.636;2022-07-18T02:49:08;101176.41;;;19.52;40.96
25944;BME280;13742;49.306;8.636;2022-07-18T02:50:10;101173.00;;;19.52;40.63
25944;BME280;13742;49.306;8.636;2022-07-18T02:51:08;101174.73;;;19.53;40.49
25944;BME280;13742;49.306;8.636;2022-07-18T02:52:08;101172.27;;;19.53;40.46
25944;BME280;13742;49.306;8.636;2022-07-18T02:53:08;101172.83;;;19.52;40.71
25944;BME280;13742;49.306;8.636;2022-07-18T02:54:08;101176.07;;;19.52;40.53
25944;BME280;13742;49.306;8.636;2022-07-18T02:55:09;101173.78;;;19.51;40.43
25944;BME280;13742;49.306;8.636;2022-07-18T02:56:08;101171.16;;;19.51;40.30
25944;BME280;13742;49.306;8.636;2022-07-18T02:57:08;101171.16;;;19.51;40.59
25944;BME280;13742;49.306;8.636;2022-07-18T02:58:08;101174.05;;;19.51;40.55
25944;BME280;13742;49.306;8.636;2022-07-18T02:59:08;101174.23;;;19.52;40.51
25944;BME280;13742;49.306;8.636;2022-07-18T03:00:09;101173.28;;;19.51;40.97
25944;BME280;13742;49.306;8.636;2022-07-18T03:01:08;101169.70;;;19.52;40.78
25944;BME280;13742;49.306;8.636;2022-07-18T03:02:08;101170.05;;;19.52;40.47
25944;BME280;13742;49.306;8.636;2022-07-18T03:03:08;101168.98;;;19.52;40.51
25944;BME280;13742;49.306;8.636;2022-07-18T03:04:08;101166.64;;;19.52;40.64
25944;BME280;13742;49.306;8.636;2022-07-18T03:05:08;101164.52;;;19.52;40.53
25944;BME280;13742;49.306;8.636;2022-07-18T03:06:08;101167.58;;;19.51;40.61
25944;BME280;13742;49.306;8.636;2022-07-18T03:07:08;101166.70;;;19.50;40.57
25944;BME280;13742;49.306;8.636;2022-07-18T03:08:08;101168.02;;;19.50;40.65
25944;BME280;13742;49.306;8.636;2022-07-18T03:09:09;101166.63;;;19.50;40.79
25944;BME280;13742;49.306;8.636;2022-07-18T03:10:09;101168.65;;;19.49;40.58
25944;BME280;13742;49.306;8.636;2022-07-18T03:11:08;101165.91;;;19.48;40.58
25944;BME280;13742;49.306;8.636;2022-07-18T03:12:08;101169.53;;;19.49;40.55
25944;BME280;13742;49.306;8.636;2022-07-18T03:13:10;101167.75;;;19.48;40.50
25944;BME280;13742;49.306;8.636;2022-07-18T03:14:08;101167.69;;;19.47;40.86
25944;BME280;13742;49.306;8.636;2022-07-18T03:15:08;101170.14;;;19.46;40.54
25944;BME280;13742;49.306;8.636;2022-07-18T03:16:08;101165.36;;;19.44;40.66
25944;BME280;13742;49.306;8.636;2022-07-18T03:17:08;101168.14;;;19.45;40.81
25944;BME280;13742;49.306;8.636;2022-07-18T03:18:08;101168.19;;;19.44;40.75
25944;BME280;13742;49.306;8.636;2022-07-18T03:19:08;101166.34;;;19.42;40.94
25944;BME280;13742;49.306;8.636;2022-07-18T03:20:09;101165.95;;;19.39;40.91
25944;BME280;13742;49.306;8.636;2022-07-18T03:21:08;101163.27;;;19.39;40.54
25944;BME280;13742;49.306;8.636;2022-07-18T03:22:08;101162.44;;;19.41;41.01
25944;BME280;13742;49.306;8.636;2022-07-18T03:23:09;101164.52;;;19.43;40.74
25944;BME280;13742;49.306;8.636;2022-07-18T03:24:10;101169.20;;;19.37;41.26
25944;BME280;13742;49.306;8.636;2022-07-18T03:25:08;101166.67;;;19.34;41.31
25944;BME280;13742;49.306;8.636;2022-07-18T03:26:08;101165.44;;;19.35;41.16
25944;BME280;13742;49.306;8.636;2022-07-18T03:27:08;101161.55;;;19.36;41.14
25944;BME280;13742;49.306;8.636;2022-07-18T03:28:08;101164.27;;;19.36;41.56
25944;BME280;13742;49.306;8.636;2022-07-18T03:29:09;101160.72;;;19.38;41.23
25944;BME280;13742;49.306;8.636;2022-07-18T03:30:09;101161.33;;;19.38;40.71
25944;BME280;13742;49.306;8.636;2022-07-18T03:31:08;101162.70;;;19.38;40.79
25944;BME280;13742;49.306;8.636;2022-07-18T03:32:08;101162.83;;;19.38;40.61
25944;BME280;13742;49.306;8.636;2022-07-18T03:33:08;101161.99;;;19.38;40.77
25944;BME280;13742;49.306;8.636;2022-07-18T03:34:08;101163.73;;;19.38;40.65
25944;BME280;13742;49.306;8.636;2022-07-18T03:35:08;101164.23;;;19.38;41.04
25944;BME280;13742;49.306;8.636;2022-07-18T03:36:08;101162.05;;;19.37;41.13
25944;BME280;13742;49.306;8.636;2022-07-18T03:37:08;101162.00;;;19.37;41.05
25944;BME280;13742;49.306;8.636;2022-07-18T03:38:08;101160.32;;;19.38;40.89
25944;BME280;13742;49.306;8.636;2022-07-18T03:39:09;101159.70;;;19.38;41.03
25944;BME280;13742;49.306;8.636;2022-07-18T03:40:08;101160.66;;;19.37;41.33
25944;BME280;13742;49.306;8.636;2022-07-18T03:41:09;101158.74;;;19.36;40.89
25944;BME280;13742;49.306;8.636;2022-07-18T03:42:08;101154.07;;;19.36;40.93
25944;BME280;13742;49.306;8.636;2022-07-18T03:43:08;101158.23;;;19.32;41.12
25944;BME280;13742;49.306;8.636;2022-07-18T03:44:08;101155.72;;;19.27;41.28
25944;BME280;13742;49.306;8.636;2022-07-18T03:45:09;101160.08;;;19.26;41.27
25944;BME280;13742;49.306;8.636;2022-07-18T03:46:08;101158.67;;;19.26;41.01
25944;BME280;13742;49.306;8.636;2022-07-18T03:47:09;101159.97;;;19.24;41.60
25944;BME280;13742;49.306;8.636;2022-07-18T03:48:08;101165.48;;;19.22;41.45
25944;BME280;13742;49.306;8.636;2022-07-18T03:49:08;101164.69;;;19.18;41.73
25944;BME280;13742;49.306;8.636;2022-07-18T03:50:09;101167.43;;;19.17;41.51
25944;BME280;13742;49.306;8.636;2022-07-18T03:51:08;101165.03;;;19.16;41.43
25944;BME280;13742;49.306;8.636;2022-07-18T03:52:08;101165.98;;;19.15;41.46
25944;BME280;13742;49.306;8.636;2022-07-18T03:53:08;101167.21;;;19.16;41.29
25944;BME280;13742;49.306;8.636;2022-07-18T03:54:09;101162.23;;;19.14;41.58
25944;BME280;13742;49.306;8.636;2022-07-18T03:55:08;101165.47;;;19.13;41.35
25944;BME280;13742;49.306;8.636;2022-07-18T03:56:09;101169.28;;;19.10;41.56
25944;BME280;13742;49.306;8.636;2022-07-18T03:57:08;101166.14;;;19.06;41.60
25944;BME280;13742;49.306;8.636;2022-07-18T03:58:08;101166.55;;;19.08;41.15
25944;BME280;13742;49.306;8.636;2022-07-18T03:59:08;101169.00;;;19.07;41.52
25944;BME280;13742;49.306;8.636;2022-07-18T04:00:11;101165.02;;;19.03;41.70
25944;BME280;13742;49.306;8.636;2022-07-18T04:01:08;101165.14;;;19.03;41.42
25944;BME280;13742;49.306;8.636;2022-07-18T04:02:08;101169.38;;;19.01;41.40
25944;BME280;13742;49.306;8.636;2022-07-18T04:03:08;101169.59;;;19.04;41.30
25944;BME280;13742;49.306;8.636;2022-07-18T04:04:08;101172.01;;;19.05;41.12
25944;BME280;13742;49.306;8.636;2022-07-18T04:05:08;101171.02;;;19.07;41.30
25944;BME280;13742;49.306;8.636;2022-07-18T04:06:08;101172.47;;;19.09;41.00
25944;BME280;13742;49.306;8.636;2022-07-18T04:07:08;101173.53;;;19.11;41.38
25944;BME280;13742;49.306;8.636;2022-07-18T04:08:08;101175.35;;;19.11;41.25
25944;BME280;13742;49.306;8.636;2022-07-18T04:09:08;101173.53;;;19.11;41.11
25944;BME280;13742;49.306;8.636;2022-07-18T04:10:08;101173.81;;;19.12;41.13
25944;BME280;13742;49.306;8.636;2022-07-18T04:11:08;101172.33;;;19.13;41.09
25944;BME280;13742;49.306;8.636;2022-07-18T04:12:08;101174.85;;;19.15;40.81
25944;BME280;13742;49.306;8.636;2022-07-18T04:13:08;101173.45;;;19.16;40.99
25944;BME280;13742;49.306;8.636;2022-07-18T04:14:08;101173.30;;;19.17;41.28
25944;BME280;13742;49.306;8.636;2022-07-18T04:15:08;101172.41;;;19.15;41.10
25944;BME280;13742;49.306;8.636;2022-07-18T04:16:08;101174.18;;;19.16;40.98
25944;BME280;13742;49.306;8.636;2022-07-18T04:17:08;101175.47;;;19.17;41.27
25944;BME280;13742;49.306;8.636;2022-07-18T04:18:08;101173.40;;;19.17;40.80
25944;BME280;13742;49.306;8.636;2022-07-18T04:19:08;101172.22;;;19.18;41.06
25944;BME280;13742;49.306;8.636;2022-07-18T04:20:08;101167.94;;;19.17;41.37
25944;BME280;13742;49.306;8.636;2022-07-18T04:21:08;101173.30;;;19.18;41.50
25944;BME280;13742;49.306;8.636;2022-07-18T04:22:08;101175.19;;;19.19;41.72
25944;BME280;13742;49.306;8.636;2022-07-18T04:23:08;101179.31;;;19.19;41.36
25944;BME280;13742;49.306;8.636;2022-07-18T04:24:08;101177.82;;;19.18;41.31
25944;BME280;13742;49.306;8.636;2022-07-18T04:25:08;101180.49;;;19.17;41.53
25944;BME280;13742;49.306;8.636;2022-07-18T04:26:09;101182.89;;;19.19;41.02
25944;BME280;13742;49.306;8.636;2022-07-18T04:27:08;101185.00;;;19.16;41.38
25944;BME280;13742;49.306;8.636;2022-07-18T04:28:09;101187.31;;;19.18;41.07
25944;BME280;13742;49.306;8.636;2022-07-18T04:29:08;101186.97;;;19.19;41.00
25944;BME280;13742;49.306;8.636;2022-07-18T04:30:08;101187.92;;;19.19;40.89
25944;BME280;13742;49.306;8.636;2022-07-18T04:31:08;101186.53;;;19.20;41.24
25944;BME280;13742;49.306;8.636;2022-07-18T04:32:08;101184.91;;;19.21;41.29
25944;BME280;13742;49.306;8.636;2022-07-18T04:33:08;101182.96;;;19.20;41.47
25944;BME280;13742;49.306;8.636;2022-07-18T04:34:08;101182.34;;;19.21;41.08
25944;BME280;13742;49.306;8.636;2022-07-18T04:35:08;101182.34;;;19.21;41.44
25944;BME280;13742;49.306;8.636;2022-07-18T04:36:08;101180.49;;;19.21;41.35
25944;BME280;13742;49.306;8.636;2022-07-18T04:37:09;101181.73;;;19.21;41.19
25944;BME280;13742;49.306;8.636;2022-07-18T04:38:09;101184.81;;;19.22;41.24
25944;BME280;13742;49.306;8.636;2022-07-18T04:39:08;101182.47;;;19.22;41.14
25944;BME280;13742;49.306;8.636;2022-07-18T04:40:09;101178.67;;;19.23;40.88
25944;BME280;13742;49.306;8.636;2022-07-18T04:41:08;101179.39;;;19.24;41.02
25944;BME280;13742;49.306;8.636;2022-07-18T04:42:08;101184.63;;;19.25;41.02
25944;BME280;13742;49.306;8.636;2022-07-18T04:43:08;101181.91;;;19.24;41.17
25944;BME280;13742;49.306;8.636;2022-07-18T04:44:08;101185.02;;;19.26;41.25
25944;BME280;13742;49.306;8.636;2022-07-18T04:45:08;101186.81;;;19.26;41.06
25944;BME280;13742;49.306;8.636;2022-07-18T04:46:08;101185.26;;;19.28;40.72
25944;BME280;13742;49.306;8.636;2022-07-18T04:47:08;101186.10;;;19.30;41.02
25944;BME280;13742;49.306;8.636;2022-07-18T04:48:08;101187.94;;;19.31;41.20
25944;BME280;13742;49.306;8.636;2022-07-18T04:49:08;101189.12;;;19.30;41.68
25944;BME280;13742;49.306;8.636;2022-07-18T04:50:08;101190.13;;;19.32;42.01
25944;BME280;13742;49.306;8.636;2022-07-18T04:51:08;101190.45;;;19.33;41.87
25944;BME280;13742;49.306;8.636;2022-07-18T04:52:08;101188.22;;;19.32;41.79
25944;BME280;13742;49.306;8.636;2022-07-18T04:53:08;101188.28;;;19.33;41.88
25944;BME280;13742;49.306;8.636;2022-07-18T04:54:08;101185.04;;;19.33;41.67
25944;BME280;13742;49.306;8.636;2022-07-18T04:55:09;101182.09;;;19.35;41.20
25944;BME280;13742;49.306;8.636;2022-07-18T04:56:08;101181.75;;;19.37;41.22
25944;BME280;13742;49.306;8.636;2022-07-18T04:57:11;101180.74;;;19.37;42.30
25944;BME280;13742;49.306;8.636;2022-07-18T04:58:08;101181.64;;;19.36;42.25
25944;BME280;13742;49.306;8.636;2022-07-18T04:59:08;101178.67;;;19.36;42.25
25944;BME280;13742;49.306;8.636;2022-07-18T05:00:12;101180.70;;;19.37;42.14
25944;BME280;13742;49.306;8.636;2022-07-18T05:01:08;101176.11;;;19.37;41.93
25944;BME280;13742;49.306;8.636;2022-07-18T05:02:08;101178.97;;;19.39;42.21
25944;BME280;13742;49.306;8.636;2022-07-18T05:03:08;101180.97;;;19.40;42.25
25944;BME280;13742;49.306;8.636;2022-07-18T05:04:08;101178.91;;;19.41;42.17
25944;BME280;13742;49.306;8.636;2022-07-18T05:05:10;101181.20;;;19.42;42.23
25944;BME280;13742;49.306;8.636;2022-07-18T05:06:08;101180.52;;;19.42;42.26
25944;BME280;13742;49.306;8.636;2022-07-18T05:07:08;101184.16;;;19.44;42.62
25944;BME280;13742;49.306;8.636;2022-07-18T05:08:11;101186.61;;;19.43;42.53
25944;BME280;13742;49.306;8.636;2022-07-18T05:09:08;101185.63;;;19.44;42.66
25944;BME280;13742;49.306;8.636;2022-07-18T05:10:09;101184.78;;;19.46;42.72
25944;BME280;13742;49.306;8.636;2022-07-18T05:11:08;101190.38;;;19.45;42.90
25944;BME280;13742;49.306;8.636;2022-07-18T05:12:09;101188.84;;;19.46;42.40
25944;BME280;13742;49.306;8.636;2022-07-18T05:13:08;101192.38;;;19.48;42.49
25944;BME280;13742;49.306;8.636;2022-07-18T05:14:08;101193.77;;;19.44;42.78